createdAt,value
2023-01-25T00:03:58.646Z,1.00
2023-01-25T00:08:16.691Z,1.00
2023-01-25T00:12:34.224Z,1.00
2023-01-25T00:16:51.440Z,1.10
2023-01-25T00:21:20.162Z,0.90
2023-01-25T00:25:37.324Z,0.90
2023-01-25T00:29:54.419Z,0.90
2023-01-25T00:34:26.461Z,0.80
2023-01-25T00:38:43.661Z,0.90
2023-01-25T00:43:01.091Z,0.80
2023-01-25T00:47:18.494Z,0.70
2023-01-25T00:51:35.645Z,0.80
2023-01-25T00:55:53.529Z,0.90
2023-01-25T01:00:11.387Z,0.80
2023-01-25T01:04:32.305Z,0.70
2023-01-25T01:08:49.490Z,0.80
2023-01-25T01:13:07.716Z,0.80
2023-01-25T01:17:24.892Z,0.70
2023-01-25T01:21:42.543Z,0.80
2023-01-25T01:26:04.366Z,0.90
2023-01-25T01:30:21.470Z,0.80
2023-01-25T01:34:38.581Z,0.70
2023-01-25T01:38:56.054Z,0.70
2023-01-25T01:43:24.108Z,0.70
2023-01-25T01:47:45.924Z,0.70
2023-01-25T01:52:08.469Z,0.70
2023-01-25T01:56:32.263Z,0.70
2023-01-25T02:00:49.643Z,0.70
2023-01-25T02:05:12.154Z,0.60
2023-01-25T02:09:31.317Z,0.70
2023-01-25T02:13:49.775Z,0.60
2023-01-25T02:18:07.169Z,0.50
2023-01-25T02:22:31.390Z,0.50
2023-01-25T02:26:48.508Z,0.50
2023-01-25T02:31:06.335Z,0.50
2023-01-25T02:35:37.093Z,0.50
2023-01-25T02:39:54.441Z,0.50
2023-01-25T02:44:34.380Z,0.50
2023-01-25T02:48:51.926Z,0.60
2023-01-25T02:53:09.133Z,0.50
2023-01-25T02:57:26.211Z,0.50
2023-01-25T03:01:43.694Z,0.60
2023-01-25T03:06:00.816Z,0.70
2023-01-25T03:10:17.996Z,0.70
2023-01-25T03:14:35.083Z,0.60
2023-01-25T03:18:55.852Z,0.70
2023-01-25T03:23:12.966Z,0.70
2023-01-25T03:27:30.767Z,0.70
2023-01-25T03:31:48.061Z,0.70
2023-01-25T03:36:06.334Z,0.70
2023-01-25T03:40:23.381Z,0.70
2023-01-25T03:44:40.346Z,0.80
2023-01-25T03:48:57.399Z,0.80
2023-01-25T03:53:27.254Z,0.80
2023-01-25T03:57:44.623Z,0.70
2023-01-25T04:02:02.901Z,0.60
2023-01-25T04:06:20.311Z,0.70
2023-01-25T04:10:37.399Z,0.70
2023-01-25T04:14:54.501Z,0.60
2023-01-25T04:19:11.624Z,0.60
2023-01-25T04:23:28.874Z,0.60
2023-01-25T04:27:46.113Z,0.70
2023-01-25T04:32:03.313Z,0.70
2023-01-25T04:36:20.545Z,0.80
2023-01-25T04:40:37.702Z,0.80
2023-01-25T04:44:54.813Z,0.90
2023-01-25T04:49:11.941Z,0.90
2023-01-25T04:53:29.062Z,0.80
2023-01-25T04:57:48.611Z,0.90
2023-01-25T05:02:05.698Z,0.80
2023-01-25T05:06:22.956Z,0.70
2023-01-25T05:10:40.045Z,0.90
2023-01-25T05:14:57.168Z,0.80
2023-01-25T05:19:14.318Z,0.80
2023-01-25T05:23:31.411Z,0.90
2023-01-25T05:27:49.189Z,0.80
2023-01-25T05:32:11.622Z,0.80
2023-01-25T05:36:28.754Z,0.90
2023-01-25T05:40:45.848Z,0.80
2023-01-25T05:45:03.157Z,0.70
2023-01-25T05:49:20.831Z,0.80
2023-01-25T05:53:37.974Z,0.80
2023-01-25T05:57:57.876Z,0.80
2023-01-25T06:02:15.097Z,0.80
2023-01-25T06:06:32.400Z,0.80
2023-01-25T06:10:49.683Z,0.90
2023-01-25T06:15:07.492Z,0.90
2023-01-25T06:19:24.745Z,0.90
2023-01-25T06:23:44.151Z,0.80
2023-01-25T06:28:02.247Z,0.70
2023-01-25T06:32:19.330Z,0.80
2023-01-25T06:36:36.478Z,0.80
2023-01-25T06:40:53.565Z,0.90
2023-01-25T06:45:11.445Z,0.70
2023-01-25T06:49:28.710Z,0.70
2023-01-25T06:53:47.033Z,0.60
2023-01-25T06:58:04.122Z,0.60
2023-01-25T07:02:21.589Z,0.70
2023-01-25T07:06:39.042Z,0.70
2023-01-25T07:10:58.213Z,0.70
2023-01-25T07:15:15.291Z,0.80
2023-01-25T07:19:32.387Z,0.80
2023-01-25T07:23:50.794Z,0.80
2023-01-25T07:28:07.964Z,0.70
2023-01-25T07:32:25.207Z,0.70
2023-01-25T07:36:43.926Z,0.80
2023-01-25T07:41:01.181Z,0.70
2023-01-25T07:45:18.291Z,0.70
2023-01-25T07:49:35.537Z,0.90
2023-01-25T07:53:54.850Z,0.90
2023-01-25T07:58:12.059Z,0.80
2023-01-25T08:02:29.170Z,0.80
2023-01-25T08:06:46.658Z,0.90
2023-01-25T08:11:14.388Z,0.90
2023-01-25T08:15:31.465Z,0.90
2023-01-25T08:19:48.595Z,1.00
2023-01-25T08:24:07.278Z,1.10
2023-01-25T08:28:24.562Z,1.10
2023-01-25T08:32:41.747Z,1.00
2023-01-25T08:36:58.834Z,1.10
2023-01-25T08:41:18.370Z,1.10
2023-01-25T08:45:37.068Z,1.20
2023-01-25T08:49:55.312Z,1.20
2023-01-25T08:54:12.871Z,1.10
2023-01-25T08:58:31.662Z,1.20
2023-01-25T09:02:48.867Z,1.40
2023-01-25T09:07:06.178Z,1.40
2023-01-25T09:11:23.308Z,1.40
2023-01-25T09:15:40.392Z,1.20
2023-01-25T09:19:57.487Z,1.10
2023-01-25T09:24:15.060Z,1.10
2023-01-25T09:28:33.234Z,1.30
2023-01-25T09:32:50.986Z,1.30
2023-01-25T09:37:08.197Z,1.40
2023-01-25T09:41:41.632Z,1.50
2023-01-25T09:45:59.616Z,1.60
2023-01-25T09:50:33.143Z,1.70
2023-01-25T09:54:50.328Z,1.60
2023-01-25T09:59:17.188Z,1.60
2023-01-25T10:03:45.347Z,1.70
2023-01-25T10:08:31.195Z,1.80
2023-01-25T10:12:48.370Z,1.70
2023-01-25T10:17:13.275Z,1.70
2023-01-25T10:21:40.047Z,1.80
2023-01-25T10:26:04.058Z,1.50
2023-01-25T10:30:33.886Z,1.60
2023-01-25T10:34:56.620Z,1.80
2023-01-25T10:39:14.829Z,1.70
2023-01-25T10:43:32.179Z,1.90
2023-01-25T10:48:07.934Z,1.50
2023-01-25T10:52:27.706Z,1.40
2023-01-25T10:56:46.099Z,1.40
2023-01-25T11:01:08.871Z,1.70
2023-01-25T11:05:37.999Z,1.80
2023-01-25T11:09:55.162Z,1.90
2023-01-25T11:14:17.479Z,1.90
2023-01-25T11:18:35.261Z,2.00
2023-01-25T11:22:55.271Z,1.90
2023-01-25T11:27:22.688Z,1.90
2023-01-25T11:31:42.002Z,1.80
2023-01-25T11:36:25.074Z,1.80
2023-01-25T11:40:49.171Z,2.00
2023-01-25T11:45:35.920Z,1.90
2023-01-25T11:50:16.698Z,2.00
2023-01-25T11:54:59.674Z,1.90
2023-01-25T11:59:54.849Z,1.70
2023-01-25T12:04:41.814Z,2.00
2023-01-25T12:09:28.823Z,2.00
2023-01-25T12:14:02.343Z,1.80
2023-01-25T12:18:32.117Z,1.80
2023-01-25T12:23:13.957Z,1.90
2023-01-25T12:27:43.618Z,1.90
2023-01-25T12:32:24.211Z,1.70
2023-01-25T12:36:45.966Z,1.60
2023-01-25T12:41:14.430Z,1.60
2023-01-25T12:45:36.311Z,1.60
2023-01-25T12:50:16.391Z,1.60
2023-01-25T12:54:40.844Z,1.80
2023-01-25T12:59:15.547Z,1.60
2023-01-25T13:03:47.065Z,1.60
2023-01-25T13:08:51.518Z,1.60
2023-01-25T13:13:21.953Z,1.80
2023-01-25T13:17:40.666Z,2.00
2023-01-25T13:21:59.569Z,2.00
2023-01-25T13:26:22.438Z,1.90
2023-01-25T13:30:51.939Z,1.80
2023-01-25T13:35:32.591Z,2.00
2023-01-25T13:39:51.774Z,1.90
2023-01-25T13:44:21.729Z,1.70
2023-01-25T13:48:58.946Z,1.70
2023-01-25T13:53:16.001Z,1.80
2023-01-25T13:57:33.152Z,2.00
2023-01-25T14:01:51.592Z,1.80
2023-01-25T14:06:15.914Z,1.60
2023-01-25T14:10:32.940Z,1.60
2023-01-25T14:14:50.033Z,1.50
2023-01-25T14:19:22.835Z,1.70
2023-01-25T14:23:40.345Z,1.80
2023-01-25T14:27:59.807Z,1.60
2023-01-25T14:32:20.953Z,1.80
2023-01-25T14:36:38.045Z,1.60
2023-01-25T14:40:58.884Z,1.70
2023-01-25T14:45:18.083Z,1.50
2023-01-25T14:49:36.298Z,1.50
2023-01-25T14:54:06.153Z,1.60
2023-01-25T14:58:25.304Z,1.40
2023-01-25T15:02:49.664Z,1.40
2023-01-25T15:07:17.713Z,1.40
2023-01-25T15:11:35.210Z,1.40
2023-01-25T15:16:00.557Z,1.50
2023-01-25T15:20:36.753Z,1.50
2023-01-25T15:24:58.434Z,1.30
2023-01-25T15:29:28.862Z,1.30
2023-01-25T15:33:46.271Z,1.40
2023-01-25T15:38:03.358Z,1.20
2023-01-25T15:42:20.420Z,1.10
2023-01-25T15:46:43.878Z,1.20
2023-01-25T15:51:01.082Z,1.10
2023-01-25T15:55:18.203Z,1.10
2023-01-25T15:59:36.026Z,1.20
2023-01-25T16:03:54.564Z,1.20
2023-01-25T16:08:19.028Z,1.10
2023-01-25T16:12:36.620Z,1.10
2023-01-25T16:16:53.869Z,1.20
2023-01-25T16:21:12.526Z,1.10
2023-01-25T16:25:29.683Z,1.10
2023-01-25T16:29:47.376Z,1.20
2023-01-25T16:34:04.444Z,1.20
2023-01-25T16:38:21.499Z,1.20
2023-01-25T16:42:38.597Z,1.20
2023-01-25T16:46:56.362Z,1.20
2023-01-25T16:51:26.233Z,1.10
2023-01-25T16:55:43.377Z,1.10
2023-01-25T17:00:03.034Z,1.10
2023-01-25T17:04:20.392Z,1.10
2023-01-25T17:08:37.479Z,1.10
2023-01-25T17:12:54.583Z,1.20
2023-01-25T17:17:11.667Z,1.20
2023-01-25T17:21:29.071Z,1.10
2023-01-25T17:25:46.139Z,1.10
2023-01-25T17:30:03.708Z,1.10
2023-01-25T17:34:21.915Z,1.20
2023-01-25T17:38:39.678Z,1.10
2023-01-25T17:42:56.787Z,1.20
2023-01-25T17:47:13.871Z,1.10
2023-01-25T17:51:33.384Z,1.30
2023-01-25T17:55:50.515Z,1.20
2023-01-25T18:00:11.715Z,1.20
2023-01-25T18:04:29.048Z,1.20
2023-01-25T18:08:48.292Z,1.10
2023-01-25T18:13:05.358Z,1.10
2023-01-25T18:17:22.417Z,1.20
2023-01-25T18:21:41.875Z,1.30
2023-01-25T18:25:59.076Z,1.40
2023-01-25T18:30:38.824Z,1.40
2023-01-25T18:34:56.822Z,1.40
2023-01-25T18:39:13.986Z,1.40
2023-01-25T18:43:31.074Z,1.30
2023-01-25T18:47:48.199Z,1.30
2023-01-25T18:52:11.622Z,1.20
2023-01-25T18:56:31.552Z,1.20
2023-01-25T19:00:48.834Z,1.30
2023-01-25T19:05:06.293Z,1.20
2023-01-25T19:09:25.120Z,1.20
2023-01-25T19:13:43.379Z,1.30
2023-01-25T19:18:00.430Z,1.30
2023-01-25T19:22:17.498Z,1.20
2023-01-25T19:26:34.569Z,1.20
2023-01-25T19:30:51.804Z,1.30
2023-01-25T19:35:09.438Z,1.30
2023-01-25T19:39:26.796Z,1.30
2023-01-25T19:43:44.394Z,1.30
2023-01-25T19:48:03.031Z,1.40
2023-01-25T19:52:20.146Z,1.40
2023-01-25T19:56:40.225Z,1.20
2023-01-25T20:01:11.630Z,1.30
2023-01-25T20:05:28.730Z,1.30
2023-01-25T20:09:45.832Z,1.20
2023-01-25T20:14:04.715Z,1.20
2023-01-25T20:18:22.991Z,1.20
2023-01-25T20:22:40.116Z,1.30
2023-01-25T20:26:58.769Z,1.30
2023-01-25T20:31:25.097Z,1.30
2023-01-25T20:35:42.312Z,1.30
2023-01-25T20:39:59.372Z,1.20
2023-01-25T20:44:17.925Z,1.20
2023-01-25T20:48:36.514Z,1.30
2023-01-25T20:52:53.893Z,1.40
2023-01-25T20:57:11.002Z,1.30
2023-01-25T21:01:30.374Z,1.20
2023-01-25T21:05:58.029Z,1.30
2023-01-25T21:10:15.585Z,1.30
2023-01-25T21:14:32.659Z,1.40
2023-01-25T21:18:54.597Z,1.30
2023-01-25T21:23:11.686Z,1.40
2023-01-25T21:27:29.604Z,1.40
2023-01-25T21:31:48.109Z,1.50
2023-01-25T21:36:09.771Z,1.40
2023-01-25T21:40:26.839Z,1.40
2023-01-25T21:45:02.712Z,1.30
2023-01-25T21:49:38.640Z,1.40
2023-01-25T21:53:55.786Z,1.40
2023-01-25T21:58:14.127Z,1.20
2023-01-25T22:02:31.247Z,1.30
2023-01-25T22:06:54.708Z,1.30
2023-01-25T22:11:12.206Z,1.30
2023-01-25T22:15:29.371Z,1.30
2023-01-25T22:19:46.450Z,1.10
2023-01-25T22:24:05.495Z,1.20
2023-01-25T22:28:22.595Z,1.00
2023-01-25T22:32:39.750Z,1.10
2023-01-25T22:36:56.840Z,0.90
2023-01-25T22:41:16.441Z,0.90
2023-01-25T22:45:33.530Z,0.80
2023-01-25T22:49:50.742Z,0.80
2023-01-25T22:54:08.153Z,0.70
2023-01-25T22:58:25.208Z,0.60
2023-01-25T23:02:42.263Z,0.50
2023-01-25T23:07:12.499Z,0.50
2023-01-25T23:11:32.227Z,0.50
2023-01-25T23:15:49.482Z,0.40
2023-01-25T23:20:08.489Z,0.40
2023-01-25T23:24:28.017Z,0.30
2023-01-25T23:28:55.547Z,0.40
2023-01-25T23:33:12.760Z,0.30
2023-01-25T23:37:29.810Z,0.20
2023-01-25T23:41:48.057Z,0.30
2023-01-25T23:46:05.543Z,0.30
2023-01-25T23:50:22.534Z,0.30
2023-01-25T23:54:39.613Z,0.30
2023-01-25T23:58:57.147Z,0.30
